sensor_id;sensor_type;location;lat;lon;timestamp;P1;durP1;ratioP1;P2;durP2;ratioP2
4377;SDS011;2203;53.686;9.994;2023-02-18T00:00:57;46.03;;;5.23;;
4377;SDS011;2203;53.686;9.994;2023-02-18T00:03:26;38.60;;;5.47;;
4377;SDS011;2203;53.686;9.994;2023-02-18T00:05:52;37.07;;;4.87;;
4377;SDS011;2203;53.686;9.994;2023-02-18T00:08:17;49.40;;;6.80;;
4377;SDS011;2203;53.686;9.994;2023-02-18T00:10:43;29.27;;;5.27;;
4377;SDS011;2203;53.686;9.994;2023-02-18T00:13:09;32.23;;;4.50;;
4377;SDS011;2203;53.686;9.994;2023-02-18T00:15:34;40.10;;;5.33;;
4377;SDS011;2203;53.686;9.994;2023-02-18T00:18:00;44.13;;;6.10;;
4377;SDS011;2203;53.686;9.994;2023-02-18T00:20:26;50.53;;;6.43;;
4377;SDS011;2203;53.686;9.994;2023-02-18T00:22:51;39.13;;;5.00;;
4377;SDS011;2203;53.686;9.994;2023-02-18T00:25:16;40.60;;;5.43;;
4377;SDS011;2203;53.686;9.994;2023-02-18T00:27:42;37.90;;;5.17;;
4377;SDS011;2203;53.686;9.994;2023-02-18T00:30:07;52.17;;;6.27;;
4377;SDS011;2203;53.686;9.994;2023-02-18T00:32:33;43.23;;;5.37;;
4377;SDS011;2203;53.686;9.994;2023-02-18T00:34:59;44.37;;;6.43;;
4377;SDS011;2203;53.686;9.994;2023-02-18T00:37:24;45.33;;;6.37;;
4377;SDS011;2203;53.686;9.994;2023-02-18T00:39:50;57.40;;;5.63;;
4377;SDS011;2203;53.686;9.994;2023-02-18T00:42:15;54.83;;;5.93;;
4377;SDS011;2203;53.686;9.994;2023-02-18T00:44:40;67.33;;;6.17;;
4377;SDS011;2203;53.686;9.994;2023-02-18T00:47:06;46.53;;;5.37;;
4377;SDS011;2203;53.686;9.994;2023-02-18T00:49:31;42.33;;;5.10;;
4377;SDS011;2203;53.686;9.994;2023-02-18T00:51:57;35.10;;;5.53;;
4377;SDS011;2203;53.686;9.994;2023-02-18T00:54:22;30.27;;;4.20;;
4377;SDS011;2203;53.686;9.994;2023-02-18T00:56:48;35.40;;;4.57;;
4377;SDS011;2203;53.686;9.994;2023-02-18T00:59:13;33.10;;;4.40;;
4377;SDS011;2203;53.686;9.994;2023-02-18T01:01:38;44.33;;;8.00;;
4377;SDS011;2203;53.686;9.994;2023-02-18T01:04:04;44.33;;;6.60;;
4377;SDS011;2203;53.686;9.994;2023-02-18T01:06:29;32.83;;;7.10;;
4377;SDS011;2203;53.686;9.994;2023-02-18T01:08:55;39.57;;;6.03;;
4377;SDS011;2203;53.686;9.994;2023-02-18T01:11:20;45.10;;;5.60;;
4377;SDS011;2203;53.686;9.994;2023-02-18T01:13:45;38.70;;;5.60;;
4377;SDS011;2203;53.686;9.994;2023-02-18T01:16:11;37.27;;;5.00;;
4377;SDS011;2203;53.686;9.994;2023-02-18T01:18:37;51.50;;;4.53;;
4377;SDS011;2203;53.686;9.994;2023-02-18T01:21:03;36.90;;;5.57;;
4377;SDS011;2203;53.686;9.994;2023-02-18T01:23:32;38.57;;;4.77;;
4377;SDS011;2203;53.686;9.994;2023-02-18T01:25:58;40.33;;;4.77;;
4377;SDS011;2203;53.686;9.994;2023-02-18T01:28:23;36.60;;;6.53;;
4377;SDS011;2203;53.686;9.994;2023-02-18T01:30:50;41.30;;;5.23;;
4377;SDS011;2203;53.686;9.994;2023-02-18T01:33:16;48.27;;;4.90;;
4377;SDS011;2203;53.686;9.994;2023-02-18T01:35:42;49.60;;;5.20;;
4377;SDS011;2203;53.686;9.994;2023-02-18T01:38:08;37.67;;;4.10;;
4377;SDS011;2203;53.686;9.994;2023-02-18T01:40:34;29.20;;;3.90;;
4377;SDS011;2203;53.686;9.994;2023-02-18T01:42:59;42.33;;;5.97;;
4377;SDS011;2203;53.686;9.994;2023-02-18T01:50:50;26.10;;;3.87;;
4377;SDS011;2203;53.686;9.994;2023-02-18T01:53:24;40.73;;;5.00;;
4377;SDS011;2203;53.686;9.994;2023-02-18T01:55:52;35.20;;;4.20;;
4377;SDS011;2203;53.686;9.994;2023-02-18T01:58:18;38.03;;;4.73;;
4377;SDS011;2203;53.686;9.994;2023-02-18T02:00:44;28.37;;;3.83;;
4377;SDS011;2203;53.686;9.994;2023-02-18T02:03:09;56.90;;;5.10;;
4377;SDS011;2203;53.686;9.994;2023-02-18T02:05:35;46.33;;;5.23;;
4377;SDS011;2203;53.686;9.994;2023-02-18T02:08:00;62.67;;;6.20;;
4377;SDS011;2203;53.686;9.994;2023-02-18T02:10:42;32.70;;;4.37;;
4377;SDS011;2203;53.686;9.994;2023-02-18T02:13:33;42.60;;;4.43;;
4377;SDS011;2203;53.686;9.994;2023-02-18T02:16:26;51.03;;;5.80;;
4377;SDS011;2203;53.686;9.994;2023-02-18T02:22:25;32.63;;;4.53;;
4377;SDS011;2203;53.686;9.994;2023-02-18T02:35:47;24.53;;;4.23;;
4377;SDS011;2203;53.686;9.994;2023-02-18T02:38:30;30.87;;;4.20;;
4377;SDS011;2203;53.686;9.994;2023-02-18T02:41:22;32.97;;;4.27;;
4377;SDS011;2203;53.686;9.994;2023-02-18T02:46:41;38.97;;;4.47;;
4377;SDS011;2203;53.686;9.994;2023-02-18T02:52:04;38.17;;;4.77;;
4377;SDS011;2203;53.686;9.994;2023-02-18T02:54:32;37.90;;;4.70;;
4377;SDS011;2203;53.686;9.994;2023-02-18T02:59:42;35.77;;;5.00;;
4377;SDS011;2203;53.686;9.994;2023-02-18T03:10:10;42.67;;;4.60;;
4377;SDS011;2203;53.686;9.994;2023-02-18T03:20:31;32.40;;;4.03;;
4377;SDS011;2203;53.686;9.994;2023-02-18T03:23:00;27.90;;;4.47;;
4377;SDS011;2203;53.686;9.994;2023-02-18T03:25:28;32.00;;;4.73;;
4377;SDS011;2203;53.686;9.994;2023-02-18T03:27:59;24.77;;;3.47;;
4377;SDS011;2203;53.686;9.994;2023-02-18T03:30:29;35.07;;;4.17;;
4377;SDS011;2203;53.686;9.994;2023-02-18T03:33:25;22.57;;;3.57;;
4377;SDS011;2203;53.686;9.994;2023-02-18T03:35:54;27.23;;;3.43;;
4377;SDS011;2203;53.686;9.994;2023-02-18T03:40:59;38.60;;;4.50;;
4377;SDS011;2203;53.686;9.994;2023-02-18T03:43:25;21.40;;;2.87;;
4377;SDS011;2203;53.686;9.994;2023-02-18T03:45:50;23.77;;;2.87;;
4377;SDS011;2203;53.686;9.994;2023-02-18T03:48:16;21.23;;;3.37;;
4377;SDS011;2203;53.686;9.994;2023-02-18T03:50:41;30.97;;;3.40;;
4377;SDS011;2203;53.686;9.994;2023-02-18T03:53:06;19.13;;;3.10;;
4377;SDS011;2203;53.686;9.994;2023-02-18T03:55:32;35.07;;;4.50;;
4377;SDS011;2203;53.686;9.994;2023-02-18T03:57:57;21.23;;;3.03;;
4377;SDS011;2203;53.686;9.994;2023-02-18T04:00:23;30.03;;;3.30;;
4377;SDS011;2203;53.686;9.994;2023-02-18T04:02:48;28.20;;;3.90;;
4377;SDS011;2203;53.686;9.994;2023-02-18T04:05:14;23.93;;;4.33;;
4377;SDS011;2203;53.686;9.994;2023-02-18T04:07:39;18.77;;;3.80;;
4377;SDS011;2203;53.686;9.994;2023-02-18T04:10:05;26.33;;;3.33;;
4377;SDS011;2203;53.686;9.994;2023-02-18T04:12:31;18.93;;;2.80;;
4377;SDS011;2203;53.686;9.994;2023-02-18T04:14:56;22.90;;;4.07;;
4377;SDS011;2203;53.686;9.994;2023-02-18T04:17:21;14.77;;;2.27;;
4377;SDS011;2203;53.686;9.994;2023-02-18T04:19:47;22.13;;;3.07;;
4377;SDS011;2203;53.686;9.994;2023-02-18T04:22:12;29.20;;;2.93;;
4377;SDS011;2203;53.686;9.994;2023-02-18T04:24:38;14.53;;;2.20;;
4377;SDS011;2203;53.686;9.994;2023-02-18T04:27:03;25.00;;;3.13;;
4377;SDS011;2203;53.686;9.994;2023-02-18T04:29:29;20.80;;;2.50;;
4377;SDS011;2203;53.686;9.994;2023-02-18T04:31:54;22.10;;;3.80;;
4377;SDS011;2203;53.686;9.994;2023-02-18T04:34:19;32.47;;;3.10;;
4377;SDS011;2203;53.686;9.994;2023-02-18T04:36:45;33.27;;;3.77;;
4377;SDS011;2203;53.686;9.994;2023-02-18T04:39:10;25.17;;;3.00;;
4377;SDS011;2203;53.686;9.994;2023-02-18T04:41:35;19.53;;;2.43;;
4377;SDS011;2203;53.686;9.994;2023-02-18T04:44:01;21.87;;;2.90;;
4377;SDS011;2203;53.686;9.994;2023-02-18T04:46:26;16.10;;;2.50;;
4377;SDS011;2203;53.686;9.994;2023-02-18T04:48:52;18.50;;;2.50;;
4377;SDS011;2203;53.686;9.994;2023-02-18T04:51:17;27.00;;;2.90;;
4377;SDS011;2203;53.686;9.994;2023-02-18T04:53:43;21.30;;;2.87;;
4377;SDS011;2203;53.686;9.994;2023-02-18T04:56:08;19.67;;;2.07;;
4377;SDS011;2203;53.686;9.994;2023-02-18T04:58:33;24.70;;;2.57;;
4377;SDS011;2203;53.686;9.994;2023-02-18T05:00:59;16.40;;;2.80;;
4377;SDS011;2203;53.686;9.994;2023-02-18T05:03:26;13.37;;;2.63;;
4377;SDS011;2203;53.686;9.994;2023-02-18T05:05:52;17.53;;;2.37;;
4377;SDS011;2203;53.686;9.994;2023-02-18T05:08:17;22.87;;;2.40;;
4377;SDS011;2203;53.686;9.994;2023-02-18T05:10:43;16.27;;;3.17;;
4377;SDS011;2203;53.686;9.994;2023-02-18T05:13:08;19.20;;;2.00;;
4377;SDS011;2203;53.686;9.994;2023-02-18T05:15:34;24.70;;;2.30;;
4377;SDS011;2203;53.686;9.994;2023-02-18T05:17:59;9.40;;;1.73;;
4377;SDS011;2203;53.686;9.994;2023-02-18T05:20:25;13.13;;;2.40;;
4377;SDS011;2203;53.686;9.994;2023-02-18T05:22:50;20.60;;;2.43;;
4377;SDS011;2203;53.686;9.994;2023-02-18T05:25:15;9.57;;;2.43;;
4377;SDS011;2203;53.686;9.994;2023-02-18T05:27:41;17.00;;;2.60;;
4377;SDS011;2203;53.686;9.994;2023-02-18T05:30:06;20.93;;;2.30;;
4377;SDS011;2203;53.686;9.994;2023-02-18T05:32:32;21.30;;;2.70;;
4377;SDS011;2203;53.686;9.994;2023-02-18T05:34:57;11.97;;;2.10;;
4377;SDS011;2203;53.686;9.994;2023-02-18T05:37:23;13.20;;;2.57;;
4377;SDS011;2203;53.686;9.994;2023-02-18T05:39:48;15.83;;;2.50;;
4377;SDS011;2203;53.686;9.994;2023-02-18T05:42:13;21.80;;;2.63;;
4377;SDS011;2203;53.686;9.994;2023-02-18T05:44:39;23.60;;;3.27;;
4377;SDS011;2203;53.686;9.994;2023-02-18T05:47:09;20.10;;;2.30;;
4377;SDS011;2203;53.686;9.994;2023-02-18T05:49:36;20.27;;;2.23;;
4377;SDS011;2203;53.686;9.994;2023-02-18T05:52:02;14.53;;;2.67;;
4377;SDS011;2203;53.686;9.994;2023-02-18T05:54:28;15.80;;;2.87;;
4377;SDS011;2203;53.686;9.994;2023-02-18T05:56:54;9.77;;;1.67;;
4377;SDS011;2203;53.686;9.994;2023-02-18T05:59:20;23.00;;;2.63;;
4377;SDS011;2203;53.686;9.994;2023-02-18T06:01:46;16.20;;;2.30;;
4377;SDS011;2203;53.686;9.994;2023-02-18T06:04:11;13.27;;;2.40;;
4377;SDS011;2203;53.686;9.994;2023-02-18T06:06:37;16.93;;;3.50;;
4377;SDS011;2203;53.686;9.994;2023-02-18T06:09:03;25.47;;;2.77;;
4377;SDS011;2203;53.686;9.994;2023-02-18T06:11:29;26.27;;;2.57;;
4377;SDS011;2203;53.686;9.994;2023-02-18T06:13:55;22.33;;;2.13;;
4377;SDS011;2203;53.686;9.994;2023-02-18T06:16:20;25.50;;;2.87;;
4377;SDS011;2203;53.686;9.994;2023-02-18T06:18:45;20.97;;;2.57;;
4377;SDS011;2203;53.686;9.994;2023-02-18T06:21:11;13.90;;;3.37;;
4377;SDS011;2203;53.686;9.994;2023-02-18T06:23:36;12.80;;;2.40;;
4377;SDS011;2203;53.686;9.994;2023-02-18T06:26:02;11.70;;;2.30;;
4377;SDS011;2203;53.686;9.994;2023-02-18T06:28:27;14.37;;;2.47;;
4377;SDS011;2203;53.686;9.994;2023-02-18T06:30:52;12.10;;;2.57;;
4377;SDS011;2203;53.686;9.994;2023-02-18T06:33:18;18.17;;;2.60;;
4377;SDS011;2203;53.686;9.994;2023-02-18T06:35:53;17.50;;;3.53;;
4377;SDS011;2203;53.686;9.994;2023-02-18T06:38:23;10.97;;;2.50;;
4377;SDS011;2203;53.686;9.994;2023-02-18T06:40:49;15.77;;;2.37;;
4377;SDS011;2203;53.686;9.994;2023-02-18T06:43:14;14.80;;;3.00;;
4377;SDS011;2203;53.686;9.994;2023-02-18T06:45:40;14.60;;;1.87;;
4377;SDS011;2203;53.686;9.994;2023-02-18T06:48:05;6.77;;;1.57;;
4377;SDS011;2203;53.686;9.994;2023-02-18T06:50:30;19.33;;;2.27;;
4377;SDS011;2203;53.686;9.994;2023-02-18T06:52:56;12.20;;;2.20;;
4377;SDS011;2203;53.686;9.994;2023-02-18T06:55:21;9.35;;;1.80;;
4377;SDS011;2203;53.686;9.994;2023-02-18T06:57:47;20.10;;;1.80;;
4377;SDS011;2203;53.686;9.994;2023-02-18T07:00:12;12.87;;;2.47;;
4377;SDS011;2203;53.686;9.994;2023-02-18T07:02:38;15.67;;;1.80;;
4377;SDS011;2203;53.686;9.994;2023-02-18T07:05:04;13.07;;;2.30;;
4377;SDS011;2203;53.686;9.994;2023-02-18T07:07:29;16.67;;;1.77;;
4377;SDS011;2203;53.686;9.994;2023-02-18T07:09:55;12.27;;;2.40;;
4377;SDS011;2203;53.686;9.994;2023-02-18T07:12:20;12.23;;;1.73;;
4377;SDS011;2203;53.686;9.994;2023-02-18T07:14:46;11.73;;;1.80;;
4377;SDS011;2203;53.686;9.994;2023-02-18T07:17:11;19.80;;;2.33;;
4377;SDS011;2203;53.686;9.994;2023-02-18T07:19:37;18.33;;;2.70;;
4377;SDS011;2203;53.686;9.994;2023-02-18T07:22:02;16.30;;;1.93;;
4377;SDS011;2203;53.686;9.994;2023-02-18T07:24:28;13.10;;;1.90;;
4377;SDS011;2203;53.686;9.994;2023-02-18T07:26:53;14.27;;;2.10;;
4377;SDS011;2203;53.686;9.994;2023-02-18T07:29:18;13.93;;;1.90;;
4377;SDS011;2203;53.686;9.994;2023-02-18T07:31:44;10.10;;;2.20;;
4377;SDS011;2203;53.686;9.994;2023-02-18T07:34:09;16.83;;;3.10;;
4377;SDS011;2203;53.686;9.994;2023-02-18T07:36:34;20.03;;;3.27;;
4377;SDS011;2203;53.686;9.994;2023-02-18T07:39:00;14.83;;;2.43;;
4377;SDS011;2203;53.686;9.994;2023-02-18T07:41:25;10.67;;;1.80;;
4377;SDS011;2203;53.686;9.994;2023-02-18T07:43:51;6.77;;;1.80;;
4377;SDS011;2203;53.686;9.994;2023-02-18T07:46:16;11.90;;;2.30;;
4377;SDS011;2203;53.686;9.994;2023-02-18T07:48:41;16.93;;;2.00;;
4377;SDS011;2203;53.686;9.994;2023-02-18T07:51:08;11.40;;;1.90;;
4377;SDS011;2203;53.686;9.994;2023-02-18T07:53:34;6.67;;;1.70;;
4377;SDS011;2203;53.686;9.994;2023-02-18T07:56:00;11.77;;;3.23;;
4377;SDS011;2203;53.686;9.994;2023-02-18T07:58:26;13.60;;;1.87;;
4377;SDS011;2203;53.686;9.994;2023-02-18T08:00:54;18.63;;;2.37;;
4377;SDS011;2203;53.686;9.994;2023-02-18T08:03:20;14.53;;;2.77;;
4377;SDS011;2203;53.686;9.994;2023-02-18T08:05:48;20.60;;;3.47;;
4377;SDS011;2203;53.686;9.994;2023-02-18T08:08:15;20.70;;;2.57;;
4377;SDS011;2203;53.686;9.994;2023-02-18T08:10:41;13.07;;;3.67;;
4377;SDS011;2203;53.686;9.994;2023-02-18T08:13:07;14.33;;;2.23;;
4377;SDS011;2203;53.686;9.994;2023-02-18T08:15:33;14.00;;;2.60;;
4377;SDS011;2203;53.686;9.994;2023-02-18T08:17:58;13.50;;;2.50;;
4377;SDS011;2203;53.686;9.994;2023-02-18T08:20:24;9.87;;;2.40;;
4377;SDS011;2203;53.686;9.994;2023-02-18T08:22:50;16.07;;;2.50;;
4377;SDS011;2203;53.686;9.994;2023-02-18T08:25:15;12.67;;;2.60;;
4377;SDS011;2203;53.686;9.994;2023-02-18T08:27:40;17.90;;;2.50;;
4377;SDS011;2203;53.686;9.994;2023-02-18T08:30:06;28.63;;;3.87;;
4377;SDS011;2203;53.686;9.994;2023-02-18T08:32:32;19.43;;;3.70;;
4377;SDS011;2203;53.686;9.994;2023-02-18T08:34:57;20.87;;;3.10;;
4377;SDS011;2203;53.686;9.994;2023-02-18T08:37:23;9.77;;;2.70;;
4377;SDS011;2203;53.686;9.994;2023-02-18T08:39:48;12.23;;;2.83;;
4377;SDS011;2203;53.686;9.994;2023-02-18T08:42:14;12.43;;;3.07;;
4377;SDS011;2203;53.686;9.994;2023-02-18T08:44:39;13.27;;;3.00;;
4377;SDS011;2203;53.686;9.994;2023-02-18T08:47:04;10.33;;;2.63;;
4377;SDS011;2203;53.686;9.994;2023-02-18T08:49:30;9.20;;;2.70;;
4377;SDS011;2203;53.686;9.994;2023-02-18T08:51:55;15.90;;;2.67;;
4377;SDS011;2203;53.686;9.994;2023-02-18T08:54:21;17.37;;;2.80;;
4377;SDS011;2203;53.686;9.994;2023-02-18T08:56:46;17.80;;;2.73;;
4377;SDS011;2203;53.686;9.994;2023-02-18T08:59:11;14.13;;;2.27;;
4377;SDS011;2203;53.686;9.994;2023-02-18T09:01:37;13.60;;;2.23;;
4377;SDS011;2203;53.686;9.994;2023-02-18T09:04:02;24.50;;;2.27;;
4377;SDS011;2203;53.686;9.994;2023-02-18T09:06:28;14.33;;;2.87;;
4377;SDS011;2203;53.686;9.994;2023-02-18T09:08:54;15.23;;;2.13;;
4377;SDS011;2203;53.686;9.994;2023-02-18T09:11:19;10.77;;;2.30;;
4377;SDS011;2203;53.686;9.994;2023-02-18T09:13:45;10.97;;;3.50;;
4377;SDS011;2203;53.686;9.994;2023-02-18T09:16:12;16.33;;;2.33;;
4377;SDS011;2203;53.686;9.994;2023-02-18T09:18:38;15.40;;;2.63;;
4377;SDS011;2203;53.686;9.994;2023-02-18T09:21:05;16.80;;;2.60;;
4377;SDS011;2203;53.686;9.994;2023-02-18T09:23:31;11.63;;;2.70;;
4377;SDS011;2203;53.686;9.994;2023-02-18T09:25:57;23.50;;;3.33;;
4377;SDS011;2203;53.686;9.994;2023-02-18T09:28:23;20.97;;;2.70;;
4377;SDS011;2203;53.686;9.994;2023-02-18T09:30:49;11.13;;;2.33;;
4377;SDS011;2203;53.686;9.994;2023-02-18T09:33:15;16.67;;;2.63;;
4377;SDS011;2203;53.686;9.994;2023-02-18T09:35:41;8.93;;;2.03;;
4377;SDS011;2203;53.686;9.994;2023-02-18T09:38:08;15.73;;;2.37;;
4377;SDS011;2203;53.686;9.994;2023-02-18T09:40:36;22.10;;;2.80;;
4377;SDS011;2203;53.686;9.994;2023-02-18T09:43:03;22.57;;;3.30;;
4377;SDS011;2203;53.686;9.994;2023-02-18T09:45:28;19.57;;;3.20;;
4377;SDS011;2203;53.686;9.994;2023-02-18T09:47:54;8.60;;;2.23;;
4377;SDS011;2203;53.686;9.994;2023-02-18T09:50:26;5.23;;;1.97;;
4377;SDS011;2203;53.686;9.994;2023-02-18T09:52:53;34.23;;;3.30;;
4377;SDS011;2203;53.686;9.994;2023-02-18T09:55:23;18.60;;;3.70;;
4377;SDS011;2203;53.686;9.994;2023-02-18T09:57:56;11.50;;;3.50;;
4377;SDS011;2203;53.686;9.994;2023-02-18T10:03:05;13.33;;;3.40;;
4377;SDS011;2203;53.686;9.994;2023-02-18T10:05:34;12.30;;;3.13;;
4377;SDS011;2203;53.686;9.994;2023-02-18T10:08:23;7.93;;;2.87;;
4377;SDS011;2203;53.686;9.994;2023-02-18T10:10:51;6.63;;;3.07;;
4377;SDS011;2203;53.686;9.994;2023-02-18T10:13:18;8.23;;;2.97;;
4377;SDS011;2203;53.686;9.994;2023-02-18T10:15:47;7.07;;;3.57;;
4377;SDS011;2203;53.686;9.994;2023-02-18T10:18:20;11.77;;;4.40;;
4377;SDS011;2203;53.686;9.994;2023-02-18T10:20:51;8.77;;;3.10;;
4377;SDS011;2203;53.686;9.994;2023-02-18T10:23:18;6.83;;;3.23;;
4377;SDS011;2203;53.686;9.994;2023-02-18T10:25:44;7.63;;;3.80;;
4377;SDS011;2203;53.686;9.994;2023-02-18T10:28:11;6.40;;;3.30;;
4377;SDS011;2203;53.686;9.994;2023-02-18T10:30:38;6.40;;;3.97;;
4377;SDS011;2203;53.686;9.994;2023-02-18T10:35:51;3.70;;;3.07;;
4377;SDS011;2203;53.686;9.994;2023-02-18T10:39:12;7.03;;;3.53;;
4377;SDS011;2203;53.686;9.994;2023-02-18T10:41:50;10.43;;;3.70;;
4377;SDS011;2203;53.686;9.994;2023-02-18T10:47:09;8.20;;;4.20;;
4377;SDS011;2203;53.686;9.994;2023-02-18T10:49:47;6.77;;;4.30;;
4377;SDS011;2203;53.686;9.994;2023-02-18T10:52:22;6.10;;;3.57;;
4377;SDS011;2203;53.686;9.994;2023-02-18T10:57:24;7.70;;;4.30;;
4377;SDS011;2203;53.686;9.994;2023-02-18T11:02:39;9.10;;;4.67;;
4377;SDS011;2203;53.686;9.994;2023-02-18T11:07:50;6.93;;;4.50;;
4377;SDS011;2203;53.686;9.994;2023-02-18T11:10:25;6.53;;;3.90;;
4377;SDS011;2203;53.686;9.994;2023-02-18T11:12:57;6.57;;;4.77;;
4377;SDS011;2203;53.686;9.994;2023-02-18T11:15:25;15.87;;;8.10;;
4377;SDS011;2203;53.686;9.994;2023-02-18T11:17:53;7.77;;;4.73;;
4377;SDS011;2203;53.686;9.994;2023-02-18T11:20:22;6.30;;;5.27;;
4377;SDS011;2203;53.686;9.994;2023-02-18T11:22:49;7.23;;;5.20;;
4377;SDS011;2203;53.686;9.994;2023-02-18T11:25:19;7.73;;;5.23;;
4377;SDS011;2203;53.686;9.994;2023-02-18T11:27:56;9.90;;;5.47;;
4377;SDS011;2203;53.686;9.994;2023-02-18T11:30:42;5.00;;;4.47;;
4377;SDS011;2203;53.686;9.994;2023-02-18T11:33:15;15.33;;;5.50;;
4377;SDS011;2203;53.686;9.994;2023-02-18T11:35:49;6.70;;;4.70;;
4377;SDS011;2203;53.686;9.994;2023-02-18T11:38:25;5.97;;;4.73;;
4377;SDS011;2203;53.686;9.994;2023-02-18T11:40:59;7.00;;;4.87;;
4377;SDS011;2203;53.686;9.994;2023-02-18T11:43:40;9.47;;;5.63;;
4377;SDS011;2203;53.686;9.994;2023-02-18T11:46:14;5.93;;;4.57;;
4377;SDS011;2203;53.686;9.994;2023-02-18T11:48:41;7.30;;;5.07;;
4377;SDS011;2203;53.686;9.994;2023-02-18T11:51:14;7.07;;;4.90;;
4377;SDS011;2203;53.686;9.994;2023-02-18T11:53:52;6.60;;;5.17;;
4377;SDS011;2203;53.686;9.994;2023-02-18T11:56:18;7.23;;;4.97;;
4377;SDS011;2203;53.686;9.994;2023-02-18T11:58:44;6.90;;;5.60;;
4377;SDS011;2203;53.686;9.994;2023-02-18T12:01:16;7.60;;;4.90;;
4377;SDS011;2203;53.686;9.994;2023-02-18T12:03:55;7.57;;;5.17;;
4377;SDS011;2203;53.686;9.994;2023-02-18T12:06:25;4.23;;;3.83;;
4377;SDS011;2203;53.686;9.994;2023-02-18T12:08:54;3.17;;;2.87;;
4377;SDS011;2203;53.686;9.994;2023-02-18T12:11:42;3.97;;;3.20;;
4377;SDS011;2203;53.686;9.994;2023-02-18T12:14:13;2.43;;;2.20;;
4377;SDS011;2203;53.686;9.994;2023-02-18T12:19:44;1.60;;;1.20;;
4377;SDS011;2203;53.686;9.994;2023-02-18T12:22:43;3.97;;;1.60;;
4377;SDS011;2203;53.686;9.994;2023-02-18T12:28:02;6.83;;;1.53;;
4377;SDS011;2203;53.686;9.994;2023-02-18T12:33:11;10.40;;;2.00;;
4377;SDS011;2203;53.686;9.994;2023-02-18T12:46:45;10.67;;;3.10;;
4377;SDS011;2203;53.686;9.994;2023-02-18T12:49:22;26.07;;;4.53;;
4377;SDS011;2203;53.686;9.994;2023-02-18T13:06:02;15.90;;;2.63;;
4377;SDS011;2203;53.686;9.994;2023-02-18T13:10:52;15.97;;;2.40;;
4377;SDS011;2203;53.686;9.994;2023-02-18T13:13:28;15.33;;;2.57;;
4377;SDS011;2203;53.686;9.994;2023-02-18T13:16:30;22.13;;;2.97;;
4377;SDS011;2203;53.686;9.994;2023-02-18T13:18:58;24.73;;;3.40;;
4377;SDS011;2203;53.686;9.994;2023-02-18T13:21:26;19.40;;;3.30;;
4377;SDS011;2203;53.686;9.994;2023-02-18T13:24:04;10.40;;;2.47;;
4377;SDS011;2203;53.686;9.994;2023-02-18T13:26:33;8.73;;;2.37;;
4377;SDS011;2203;53.686;9.994;2023-02-18T13:34:25;9.20;;;2.13;;
4377;SDS011;2203;53.686;9.994;2023-02-18T13:39:30;4.40;;;1.63;;
4377;SDS011;2203;53.686;9.994;2023-02-18T13:42:10;2.47;;;1.90;;
4377;SDS011;2203;53.686;9.994;2023-02-18T13:47:25;1.40;;;1.30;;
4377;SDS011;2203;53.686;9.994;2023-02-18T13:49:58;2.50;;;1.63;;
4377;SDS011;2203;53.686;9.994;2023-02-18T13:52:23;2.30;;;1.20;;
4377;SDS011;2203;53.686;9.994;2023-02-18T13:54:49;1.80;;;1.50;;
4377;SDS011;2203;53.686;9.994;2023-02-18T13:57:15;4.43;;;1.70;;
4377;SDS011;2203;53.686;9.994;2023-02-18T13:59:47;1.33;;;1.23;;
4377;SDS011;2203;53.686;9.994;2023-02-18T14:07:25;1.20;;;1.20;;
4377;SDS011;2203;53.686;9.994;2023-02-18T14:25:57;1.83;;;1.40;;
4377;SDS011;2203;53.686;9.994;2023-02-18T14:31:05;1.23;;;0.90;;
4377;SDS011;2203;53.686;9.994;2023-02-18T14:34:33;1.10;;;1.00;;
4377;SDS011;2203;53.686;9.994;2023-02-18T14:36:59;1.80;;;1.37;;
4377;SDS011;2203;53.686;9.994;2023-02-18T14:39:46;1.90;;;1.33;;
4377;SDS011;2203;53.686;9.994;2023-02-18T14:50:03;1.23;;;1.00;;
4377;SDS011;2203;53.686;9.994;2023-02-18T14:52:42;1.90;;;0.97;;
4377;SDS011;2203;53.686;9.994;2023-02-18T14:55:26;1.67;;;0.90;;
4377;SDS011;2203;53.686;9.994;2023-02-18T14:57:54;0.70;;;0.70;;
4377;SDS011;2203;53.686;9.994;2023-02-18T15:00:23;0.80;;;0.70;;
4377;SDS011;2203;53.686;9.994;2023-02-18T15:02:53;0.60;;;0.60;;
4377;SDS011;2203;53.686;9.994;2023-02-18T15:05:20;1.13;;;0.77;;
4377;SDS011;2203;53.686;9.994;2023-02-18T15:08:03;0.90;;;0.80;;
4377;SDS011;2203;53.686;9.994;2023-02-18T15:10:40;1.77;;;0.70;;
4377;SDS011;2203;53.686;9.994;2023-02-18T15:13:11;0.63;;;0.60;;
4377;SDS011;2203;53.686;9.994;2023-02-18T15:15:38;1.03;;;1.00;;
4377;SDS011;2203;53.686;9.994;2023-02-18T15:18:05;0.70;;;0.70;;
4377;SDS011;2203;53.686;9.994;2023-02-18T15:20:40;0.70;;;0.70;;
4377;SDS011;2203;53.686;9.994;2023-02-18T15:23:05;0.70;;;0.70;;
4377;SDS011;2203;53.686;9.994;2023-02-18T15:25:31;1.73;;;1.43;;
4377;SDS011;2203;53.686;9.994;2023-02-18T15:27:56;1.23;;;0.93;;
4377;SDS011;2203;53.686;9.994;2023-02-18T15:30:26;0.93;;;0.80;;
4377;SDS011;2203;53.686;9.994;2023-02-18T15:32:54;1.10;;;1.10;;
4377;SDS011;2203;53.686;9.994;2023-02-18T15:35:28;1.50;;;1.10;;
4377;SDS011;2203;53.686;9.994;2023-02-18T15:37:57;1.47;;;1.30;;
4377;SDS011;2203;53.686;9.994;2023-02-18T15:40:24;1.37;;;1.23;;
4377;SDS011;2203;53.686;9.994;2023-02-18T15:42:55;1.70;;;1.60;;
4377;SDS011;2203;53.686;9.994;2023-02-18T15:45:22;2.03;;;1.90;;
4377;SDS011;2203;53.686;9.994;2023-02-18T15:47:53;3.43;;;1.90;;
4377;SDS011;2203;53.686;9.994;2023-02-18T15:50:21;2.73;;;2.20;;
4377;SDS011;2203;53.686;9.994;2023-02-18T15:52:49;2.00;;;1.90;;
4377;SDS011;2203;53.686;9.994;2023-02-18T15:55:27;4.30;;;2.07;;
4377;SDS011;2203;53.686;9.994;2023-02-18T15:57:55;2.03;;;1.80;;
4377;SDS011;2203;53.686;9.994;2023-02-18T16:00:26;2.93;;;1.80;;
4377;SDS011;2203;53.686;9.994;2023-02-18T16:05:29;2.93;;;1.90;;
4377;SDS011;2203;53.686;9.994;2023-02-18T16:07:59;4.10;;;1.77;;
4377;SDS011;2203;53.686;9.994;2023-02-18T16:13:00;1.47;;;1.20;;
4377;SDS011;2203;53.686;9.994;2023-02-18T16:15:27;2.30;;;1.20;;
4377;SDS011;2203;53.686;9.994;2023-02-18T16:17:54;1.53;;;1.17;;
4377;SDS011;2203;53.686;9.994;2023-02-18T16:20:29;5.27;;;2.30;;
4377;SDS011;2203;53.686;9.994;2023-02-18T16:23:00;1.40;;;1.20;;
4377;SDS011;2203;53.686;9.994;2023-02-18T16:30:47;1.23;;;1.00;;
4377;SDS011;2203;53.686;9.994;2023-02-18T16:33:13;4.33;;;1.10;;
4377;SDS011;2203;53.686;9.994;2023-02-18T16:35:39;3.03;;;1.10;;
4377;SDS011;2203;53.686;9.994;2023-02-18T16:38:04;0.93;;;0.93;;
4377;SDS011;2203;53.686;9.994;2023-02-18T16:40:36;1.10;;;1.00;;
4377;SDS011;2203;53.686;9.994;2023-02-18T16:43:11;1.67;;;1.23;;
4377;SDS011;2203;53.686;9.994;2023-02-18T16:45:40;1.93;;;1.03;;
4377;SDS011;2203;53.686;9.994;2023-02-18T16:48:10;1.63;;;1.40;;
4377;SDS011;2203;53.686;9.994;2023-02-18T16:50:54;2.77;;;1.60;;
4377;SDS011;2203;53.686;9.994;2023-02-18T16:53:20;3.27;;;1.30;;
4377;SDS011;2203;53.686;9.994;2023-02-18T16:55:45;1.07;;;0.90;;
4377;SDS011;2203;53.686;9.994;2023-02-18T16:58:11;1.17;;;1.07;;
4377;SDS011;2203;53.686;9.994;2023-02-18T17:00:36;0.97;;;0.97;;
4377;SDS011;2203;53.686;9.994;2023-02-18T17:03:02;2.40;;;1.20;;
4377;SDS011;2203;53.686;9.994;2023-02-18T17:05:29;1.83;;;1.20;;
4377;SDS011;2203;53.686;9.994;2023-02-18T17:10:47;2.50;;;2.00;;
4377;SDS011;2203;53.686;9.994;2023-02-18T17:13:21;3.10;;;2.30;;
4377;SDS011;2203;53.686;9.994;2023-02-18T17:15:50;2.93;;;2.20;;
4377;SDS011;2203;53.686;9.994;2023-02-18T17:18:16;2.33;;;2.07;;
4377;SDS011;2203;53.686;9.994;2023-02-18T17:20:42;7.43;;;4.70;;
4377;SDS011;2203;53.686;9.994;2023-02-18T17:23:12;2.60;;;2.40;;
4377;SDS011;2203;53.686;9.994;2023-02-18T17:25:48;2.53;;;2.33;;
4377;SDS011;2203;53.686;9.994;2023-02-18T17:28:14;3.10;;;2.80;;
4377;SDS011;2203;53.686;9.994;2023-02-18T17:30:43;2.47;;;2.27;;
4377;SDS011;2203;53.686;9.994;2023-02-18T17:33:10;2.80;;;2.50;;
4377;SDS011;2203;53.686;9.994;2023-02-18T17:35:39;3.93;;;2.60;;
4377;SDS011;2203;53.686;9.994;2023-02-18T17:38:08;2.73;;;2.40;;
4377;SDS011;2203;53.686;9.994;2023-02-18T17:40:35;3.07;;;2.77;;
4377;SDS011;2203;53.686;9.994;2023-02-18T17:43:00;3.77;;;3.40;;
4377;SDS011;2203;53.686;9.994;2023-02-18T17:45:33;6.90;;;3.20;;
4377;SDS011;2203;53.686;9.994;2023-02-18T17:48:00;4.90;;;3.43;;
4377;SDS011;2203;53.686;9.994;2023-02-18T17:50:27;4.30;;;2.93;;